Time;durP1;ratioP1;P1;durP2;ratioP2;P2;SDS_P1;SDS_P2;PMS_P1;PMS_P2;Temp;Humidity;BMP_temperature;BMP_pressure;BME280_temperature;BME280_humidity;BME280_pressure;Samples;Min_cycle;Max_cycle;Signal;HPM_P1;HPM_P2
2022/05/21 00:06:52;;;;;;;;;;;20.80;65.00;;;;;;20887396;28;20302;-79
2022/05/21 00:16:53;;;;;;;;;;;20.80;65.00;;;;;;20901389;28;19965;-78
2022/05/21 00:26:53;;;;;;;;;;;20.80;65.00;;;;;;20885378;28;20246;-77
2022/05/21 00:36:54;;;;;;;;;;;20.80;64.90;;;;;;20883465;28;19916;-78
2022/05/21 00:46:54;;;;;;;;;;;20.80;64.90;;;;;;20882694;28;19930;-78
2022/05/21 00:56:59;;;;;;;;;;;20.70;64.80;;;;;;20880919;28;19939;-79
2022/05/21 01:07:00;;;;;;;;;;;20.70;64.70;;;;;;20864166;28;19954;-79
2022/05/21 01:17:01;;;;;;;;;;;20.70;64.70;;;;;;20863892;28;19916;-79
2022/05/21 01:27:03;;;;;;;;;;;20.60;64.60;;;;;;20896373;28;19915;-78
2022/05/21 01:37:03;;;;;;;;;;;20.60;64.60;;;;;;20878175;28;19917;-79
2022/05/21 01:47:05;;;;;;;;;;;20.60;64.40;;;;;;20861941;28;20374;-78
2022/05/21 01:57:06;;;;;;;;;;;20.60;64.20;;;;;;20878110;28;19924;-79
2022/05/21 02:07:06;;;;;;;;;;;20.50;64.00;;;;;;20894238;28;19916;-78
2022/05/21 02:17:07;;;;;;;;;;;20.50;63.90;;;;;;20895088;28;20274;-78
2022/05/21 02:27:08;;;;;;;;;;;20.50;63.70;;;;;;20893654;28;19909;-79
2022/05/21 02:47:27;;;;;;;;;;;20.40;63.20;;;;;;20894649;28;19917;-77
2022/05/21 02:57:28;;;;;;;;;;;20.40;63.10;;;;;;20907221;28;20594;-78
2022/05/21 03:07:28;;;;;;;;;;;20.40;63.10;;;;;;20890592;28;19917;-80
2022/05/21 03:17:29;;;;;;;;;;;20.40;63.00;;;;;;20873921;28;19917;-78
2022/05/21 03:27:29;;;;;;;;;;;20.30;62.80;;;;;;20888753;28;20013;-78
2022/05/21 03:37:30;;;;;;;;;;;20.30;62.80;;;;;;20920448;28;20392;-79
2022/05/21 03:47:30;;;;;;;;;;;20.30;62.70;;;;;;20887426;28;19918;-79
2022/05/21 03:57:31;;;;;;;;;;;20.30;62.60;;;;;;20886599;28;19913;-79
2022/05/21 04:07:32;;;;;;;;;;;20.30;62.50;;;;;;20902135;28;19913;-79
2022/05/21 04:17:32;;;;;;;;;;;20.20;62.50;;;;;;20883950;28;20433;-79
2022/05/21 04:27:34;;;;;;;;;;;20.20;62.40;;;;;;20883283;28;19969;-78
2022/05/21 04:37:36;;;;;;;;;;;20.30;62.40;;;;;;20867133;28;19920;-77
2022/05/21 04:47:36;;;;;;;;;;;20.20;62.40;;;;;;20865387;28;20008;-78
2022/05/21 04:57:37;;;;;;;;;;;20.20;62.40;;;;;;20864621;28;19952;-78
2022/05/21 05:07:38;;;;;;;;;;;20.20;62.40;;;;;;20864849;28;19916;-77
2022/05/21 05:17:38;;;;;;;;;;;20.10;62.30;;;;;;20863280;28;19943;-78
2022/05/21 05:27:39;;;;;;;;;;;20.10;62.40;;;;;;20895231;28;19913;-79
2022/05/21 05:37:40;;;;;;;;;;;20.10;62.30;;;;;;20862663;28;19968;-77
2022/05/21 05:47:40;;;;;;;;;;;20.10;62.30;;;;;;20895078;28;19919;-78
2022/05/21 05:57:41;;;;;;;;;;;20.10;62.30;;;;;;20876874;28;19966;-77
2022/05/21 06:07:50;;;;;;;;;;;20.10;62.30;;;;;;20877347;28;19967;-80
2022/05/21 06:17:52;;;;;;;;;;;20.10;62.30;;;;;;20860942;28;19917;-77
2022/05/21 06:27:55;;;;;;;;;;;20.10;62.30;;;;;;20876985;28;20268;-77
2022/05/21 06:37:58;;;;;;;;;;;20.10;62.40;;;;;;20878552;28;19967;-77
2022/05/21 06:48:03;;;;;;;;;;;20.10;62.40;;;;;;20857832;28;19912;-77
2022/05/21 06:58:04;;;;;;;;;;;20.00;62.30;;;;;;20859263;28;19983;-77
2022/05/21 07:08:05;;;;;;;;;;;20.00;62.30;;;;;;20883203;28;20357;-77
2022/05/21 07:18:06;;;;;;;;;;;20.00;62.30;;;;;;21169803;22;20431;-74
2022/05/21 07:28:07;;;;;;;;;;;20.00;62.30;;;;;;20735085;28;19921;-73
2022/05/21 07:38:08;;;;;;;;;;;19.90;62.40;;;;;;20734051;28;19944;-74
2022/05/21 07:48:12;;;;;;;;;;;20.00;62.40;;;;;;20716962;28;20381;-74
2022/05/21 07:58:13;;;;;;;;;;;19.90;62.20;;;;;;20718383;28;20284;-74
2022/05/21 08:08:13;;;;;;;;;;;20.00;62.30;;;;;;20749337;28;19921;-73
2022/05/21 08:18:14;;;;;;;;;;;19.90;62.30;;;;;;20731054;28;20365;-74
2022/05/21 08:28:15;;;;;;;;;;;19.90;62.30;;;;;;20730125;28;19917;-73
2022/05/21 08:38:16;;;;;;;;;;;19.90;62.20;;;;;;20729519;28;19920;-73
2022/05/21 08:48:17;;;;;;;;;;;19.90;62.20;;;;;;20744983;28;19963;-73
2022/05/21 08:58:24;;;;;;;;;;;19.90;62.20;;;;;;20727748;28;20039;-75
2022/05/21 09:08:31;;;;;;;;;;;19.90;62.90;;;;;;20727800;28;19958;-73
2022/05/21 09:18:32;;;;;;;;;;;19.80;62.20;;;;;;20744772;28;20414;-73
2022/05/21 09:28:37;;;;;;;;;;;19.90;62.20;;;;;;20708811;28;19924;-73
2022/05/21 09:38:48;;;;;;;;;;;19.80;62.20;;;;;;20726850;28;19909;-73
2022/05/21 09:48:49;;;;;;;;;;;19.90;62.20;;;;;;20725308;28;19921;-73
2022/05/21 09:58:52;;;;;;;;;;;19.80;62.20;;;;;;20724554;28;19909;-74
2022/05/21 10:19:38;;;;;;;;;;;19.80;62.10;;;;;;20726077;28;19913;-73
2022/05/21 10:29:41;;;;;;;;;;;19.80;62.10;;;;;;20739925;28;19924;-73
2022/05/21 10:40:00;;;;;;;;;;;19.80;62.00;;;;;;20741381;28;19909;-73
2022/05/21 10:50:10;;;;;;;;;;;19.80;61.90;;;;;;20754733;28;20362;-73
2022/05/21 11:00:19;;;;;;;;;;;19.80;61.90;;;;;;20720555;28;19916;-73
2022/05/21 11:10:28;;;;;;;;;;;19.80;61.80;;;;;;20719680;28;19921;-74
2022/05/21 11:20:38;;;;;;;;;;;19.80;61.60;;;;;;20735477;28;19918;-73
2022/05/21 11:30:39;;;;;;;;;;;19.80;61.50;;;;;;20735058;28;19921;-73
2022/05/21 11:51:22;;;;;;;;;;;19.70;61.40;;;;;;20750269;28;19996;-75
2022/05/21 12:01:41;;;;;;;;;;;19.70;61.40;;;;;;20748725;28;19917;-74
2022/05/21 12:11:42;;;;;;;;;;;19.70;61.60;;;;;;20747866;28;20079;-73
2022/05/21 12:21:44;;;;;;;;;;;19.70;61.80;;;;;;20730282;28;19920;-74
2022/05/21 12:31:45;;;;;;;;;;;19.70;62.00;;;;;;20745841;28;19922;-73
2022/05/21 12:41:46;;;;;;;;;;;19.70;62.20;;;;;;20728968;28;19996;-74
2022/05/21 12:51:48;;;;;;;;;;;19.70;62.30;;;;;;20711615;28;20003;-74
2022/05/21 13:01:56;;;;;;;;;;;19.70;62.40;;;;;;20726305;28;19913;-75
2022/05/21 13:11:57;;;;;;;;;;;19.70;62.50;;;;;;20727193;28;20119;-75
2022/05/21 13:22:20;;;;;;;;;;;19.70;62.60;;;;;;20725973;28;19952;-74
2022/05/21 13:32:24;;;;;;;;;;;19.70;62.90;;;;;;20731649;28;20366;-74
2022/05/21 13:42:25;;;;;;;;;;;19.70;63.00;;;;;;20724555;28;19917;-73
2022/05/21 13:52:26;;;;;;;;;;;19.60;63.30;;;;;;20742188;28;19917;-74
2022/05/21 14:02:47;;;;;;;;;;;19.70;63.60;;;;;;20741711;28;20726;-73
2022/05/21 14:12:48;;;;;;;;;;;19.80;63.70;;;;;;20708321;28;19928;-74
2022/05/21 14:22:49;;;;;;;;;;;19.80;63.70;;;;;;20739701;28;19913;-74
2022/05/21 14:32:49;;;;;;;;;;;19.80;63.50;;;;;;20723422;28;19922;-73
2022/05/21 14:42:51;;;;;;;;;;;19.80;63.40;;;;;;20754750;28;19949;-74
2022/05/21 14:52:53;;;;;;;;;;;19.90;63.10;;;;;;20737866;28;20411;-74
2022/05/21 15:02:53;;;;;;;;;;;20.00;62.40;;;;;;20720831;28;20527;-75
2022/05/21 15:12:54;;;;;;;;;;;19.90;62.10;;;;;;20753407;28;20166;-74
2022/05/21 15:22:54;;;;;;;;;;;20.00;61.80;;;;;;20737018;28;20019;-74
2022/05/21 15:32:55;;;;;;;;;;;19.90;61.10;;;;;;20733532;28;20319;-74
2022/05/21 15:42:56;;;;;;;;;;;19.90;60.60;;;;;;20751269;28;19916;-74
2022/05/21 15:52:58;;;;;;;;;;;19.80;60.40;;;;;;20733154;28;19925;-73
2022/05/21 16:02:58;;;;;;;;;;;19.80;60.40;;;;;;20732051;28;20308;-75
2022/05/21 16:12:59;;;;;;;;;;;19.70;60.30;;;;;;20731511;28;20004;-75
2022/05/21 16:22:59;;;;;;;;;;;19.70;60.40;;;;;;20746914;28;19914;-75
2022/05/21 16:33:00;;;;;;;;;;;19.70;60.50;;;;;;20729675;28;19921;-75
2022/05/21 16:43:00;;;;;;;;;;;19.70;60.30;;;;;;20728824;28;19915;-74
2022/05/21 16:53:01;;;;;;;;;;;19.70;60.10;;;;;;20744462;28;19917;-74
2022/05/21 17:03:01;;;;;;;;;;;19.80;59.60;;;;;;20728790;28;19909;-75
2022/05/21 17:13:02;;;;;;;;;;;19.70;59.30;;;;;;20726638;28;20358;-74
2022/05/21 17:23:04;;;;;;;;;;;19.80;59.50;;;;;;20726315;28;19920;-74
2022/05/21 17:33:15;;;;;;;;;;;19.80;59.40;;;;;;20709601;28;19921;-74
2022/05/21 17:43:15;;;;;;;;;;;19.80;59.30;;;;;;20708705;28;19909;-75
2022/05/21 17:53:17;;;;;;;;;;;19.70;59.30;;;;;;20723738;28;19971;-74
2022/05/21 18:03:18;;;;;;;;;;;19.60;59.30;;;;;;20707327;28;20007;-75
2022/05/21 18:13:19;;;;;;;;;;;19.70;59.60;;;;;;20740494;28;20354;-75
2022/05/21 18:23:21;;;;;;;;;;;19.70;59.90;;;;;;20707085;28;19952;-74
2022/05/21 18:33:23;;;;;;;;;;;19.70;60.10;;;;;;20739807;28;20391;-74
2022/05/21 18:43:23;;;;;;;;;;;19.70;60.20;;;;;;20722134;28;19909;-74
2022/05/21 18:53:24;;;;;;;;;;;19.60;60.10;;;;;;20722132;28;19964;-74
2022/05/21 19:03:25;;;;;;;;;;;19.60;60.10;;;;;;20745897;28;20008;-75
2022/05/21 19:13:26;;;;;;;;;;;19.60;60.20;;;;;;20735278;28;20008;-74
2022/05/21 19:23:26;;;;;;;;;;;19.50;60.20;;;;;;20735252;28;20388;-75
2022/05/21 19:33:28;;;;;;;;;;;19.50;60.30;;;;;;20750549;28;20012;-75
2022/05/21 19:43:28;;;;;;;;;;;19.50;60.50;;;;;;20751212;28;19956;-74
2022/05/21 19:53:28;;;;;;;;;;;19.50;60.50;;;;;;20732792;28;20451;-74
2022/05/21 20:03:29;;;;;;;;;;;19.50;61.30;;;;;;20731779;28;19913;-74
2022/05/21 20:13:30;;;;;;;;;;;19.50;60.70;;;;;;20731759;28;20388;-74
2022/05/21 20:23:30;;;;;;;;;;;19.50;60.80;;;;;;20731829;28;20419;-74
2022/05/21 20:33:31;;;;;;;;;;;19.40;60.80;;;;;;20730038;28;19918;-74
2022/05/21 20:43:35;;;;;;;;;;;19.40;60.90;;;;;;20729672;28;19917;-73
2022/05/21 20:53:35;;;;;;;;;;;19.40;61.00;;;;;;20711775;28;20328;-74
2022/05/21 21:03:36;;;;;;;;;;;19.40;61.00;;;;;;20728648;28;19909;-74
2022/05/21 21:13:36;;;;;;;;;;;19.40;61.10;;;;;;20726313;28;20396;-74
2022/05/21 21:23:37;;;;;;;;;;;19.40;61.10;;;;;;20726377;28;19917;-74
2022/05/21 21:33:38;;;;;;;;;;;19.40;61.20;;;;;;20725586;28;20011;-74
2022/05/21 21:43:38;;;;;;;;;;;19.40;61.20;;;;;;20725794;28;20379;-74
2022/05/21 21:53:39;;;;;;;;;;;19.30;61.20;;;;;;20724948;28;20012;-73
2022/05/21 22:03:39;;;;;;;;;;;19.30;61.20;;;;;;20723705;28;20929;-74
2022/05/21 22:13:40;;;;;;;;;;;19.30;61.30;;;;;;20740388;28;19925;-75
2022/05/21 22:23:41;;;;;;;;;;;19.30;61.30;;;;;;20722962;28;19960;-74
2022/05/21 22:33:41;;;;;;;;;;;19.30;61.40;;;;;;20723793;28;20324;-74
2022/05/21 22:43:42;;;;;;;;;;;19.20;61.30;;;;;;20738622;28;20281;-74
2022/05/21 22:53:43;;;;;;;;;;;19.30;61.30;;;;;;20754308;28;19976;-73
2022/05/21 23:03:47;;;;;;;;;;;19.20;61.30;;;;;;20754852;28;19959;-73
2022/05/21 23:24:07;;;;;;;;;;;19.20;61.20;;;;;;20738096;28;20393;-73
2022/05/21 23:34:07;;;;;;;;;;;19.20;61.20;;;;;;20735062;28;20005;-73
2022/05/21 23:44:08;;;;;;;;;;;19.20;61.20;;;;;;20750055;28;19913;-74
2022/05/21 23:54:08;;;;;;;;;;;19.20;61.20;;;;;;20732662;28;19983;-73
